Time,TemperatureF,DewpointF,PressureIn,WindDirection,WindDirectionDegrees,WindSpeedMPH,WindSpeedGustMPH,Humidity,HourlyPrecipIn,Conditions,Clouds,dailyrainin,SoftwareType,DateUTC
2013-09-04 00:42:00,69.0,-99.9,-100.00,WNW,284,2.0,3.0,-999,-99.99,,,-99.99,,2013-09-04 06:42:00,
2013-09-04 00:52:00,69.0,-99.9,-100.00,WSW,255,1.0,1.0,-999,-99.99,,,-99.99,,2013-09-04 06:52:00,
2013-09-04 01:02:00,69.0,-99.9,-100.00,WSW,255,1.0,1.0,-999,-99.99,,,-99.99,,2013-09-04 07:02:00,
2013-09-04 05:12:00,64.0,-99.9,-100.00,West,280,3.0,3.0,-999,-99.99,,,-99.99,,2013-09-04 11:12:00,
2013-09-04 05:23:00,64.0,-99.9,-100.00,West,280,3.0,3.0,-999,-99.99,,,-99.99,,2013-09-04 11:23:00,
2013-09-04 05:42:00,65.0,-99.9,-100.00,NE,42,0.0,1.0,-999,-99.99,,,-99.99,,2013-09-04 11:42:00,
2013-09-04 05:52:00,65.0,-99.9,-100.00,NE,42,0.0,1.0,-999,-99.99,,,-99.99,,2013-09-04 11:52:00,
2013-09-04 07:42:00,64.0,-99.9,-100.00,West,277,2.0,2.0,-999,-99.99,,,-99.99,,2013-09-04 13:42:00,
2013-09-04 08:20:00,74.0,-99.9,-100.00,East,79,1.0,1.0,-999,-99.99,,,-99.99,,2013-09-04 14:20:00,
2013-09-04 08:52:00,73.0,-99.9,-100.00,East,101,0.0,0.0,-999,-99.99,,,-99.99,,2013-09-04 14:52:00,
2013-09-04 09:12:00,74.0,-99.9,-100.00,East,79,1.0,1.0,-999,-99.99,,,-99.99,,2013-09-04 15:12:00,
2013-09-04 09:54:00,76.0,-99.9,-100.00,ENE,77,3.0,4.0,-999,-99.99,,,-99.99,,2013-09-04 15:54:00,
2013-09-04 10:04:00,76.0,-99.9,-100.00,ENE,77,3.0,4.0,-999,-99.99,,,-99.99,,2013-09-04 16:04:00,
2013-09-04 11:13:00,82.0,-99.9,-100.00,WNW,283,6.0,8.0,-999,-99.99,,,-99.99,,2013-09-04 17:13:00,
2013-09-04 11:23:00,82.0,-99.9,-100.00,WNW,283,6.0,8.0,-999,-99.99,,,-99.99,,2013-09-04 17:23:00,
2013-09-04 14:12:00,85.0,-99.9,-100.00,SW,216,4.0,7.0,-999,-99.99,,,-99.99,,2013-09-04 20:12:00,
2013-09-04 14:22:00,85.0,-99.9,-100.00,SW,216,4.0,7.0,-999,-99.99,,,-99.99,,2013-09-04 20:22:00,
2013-09-04 14:43:00,86.0,-99.9,-100.00,WNW,286,5.0,6.0,-999,-99.99,,,-99.99,,2013-09-04 20:43:00,
2013-09-04 14:54:00,86.0,-99.9,-100.00,WNW,286,5.0,6.0,-999,-99.99,,,-99.99,,2013-09-04 20:54:00,
2013-09-04 15:30:00,89.0,-99.9,-100.00,West,265,4.0,6.0,-999,-99.99,,,-99.99,,2013-09-04 21:30:00,
2013-09-04 16:14:00,89.0,-99.9,-100.00,West,265,4.0,6.0,-999,-99.99,,,-99.99,,2013-09-04 22:14:00,
2013-09-04 16:23:00,89.0,-99.9,-100.00,West,265,4.0,6.0,-999,-99.99,,,-99.99,,2013-09-04 22:23:00,
2013-09-04 17:22:00,87.0,-99.9,-100.00,NW,311,3.0,8.0,-999,-99.99,,,-99.99,,2013-09-04 23:22:00,
2013-09-04 17:34:00,87.0,-99.9,-100.00,NW,311,3.0,8.0,-999,-99.99,,,-99.99,,2013-09-04 23:34:00,
2013-09-04 17:42:00,87.0,-99.9,-100.00,NW,311,3.0,8.0,-999,-99.99,,,-99.99,,2013-09-04 23:42:00,
2013-09-04 18:12:00,87.0,-99.9,-100.00,West,279,5.0,5.0,-999,-99.99,,,-99.99,,2013-09-05 00:12:00,
2013-09-04 20:10:00,80.0,-99.9,-100.00,WNW,283,3.0,4.0,-999,-99.99,,,-99.99,,2013-09-05 02:10:00,
2013-09-04 20:22:00,83.0,-99.9,-100.00,West,259,4.0,4.0,-999,-99.99,,,-99.99,,2013-09-05 02:22:00,
2013-09-04 20:32:00,83.0,-99.9,-100.00,West,259,4.0,4.0,-999,-99.99,,,-99.99,,2013-09-05 02:32:00,
2013-09-04 20:50:00,76.0,-99.9,-100.00,WSW,254,2.0,2.0,-999,-99.99,,,-99.99,,2013-09-05 02:50:00,
2013-09-04 21:22:00,78.0,-99.9,-100.00,WSW,238,1.0,1.0,-999,-99.99,,,-99.99,,2013-09-05 03:22:00,
2013-09-04 21:45:00,76.0,-99.9,-100.00,WSW,254,2.0,2.0,-999,-99.99,,,-99.99,,2013-09-05 03:45:00,
2013-09-04 22:10:00,74.0,-99.9,-100.00,West,263,4.0,5.0,-999,-99.99,,,-99.99,,2013-09-05 04:10:00,
2013-09-04 22:44:00,75.0,-99.9,-100.00,WSW,258,5.0,5.0,-999,-99.99,,,-99.99,,2013-09-05 04:44:00,
2013-09-04 22:54:00,74.0,-99.9,-100.00,West,263,4.0,5.0,-999,-99.99,,,-99.99,,2013-09-05 04:54:00,
2013-09-04 23:04:00,74.0,-99.9,-100.00,West,263,4.0,5.0,-999,-99.99,,,-99.99,,2013-09-05 05:04:00,
2013-09-04 23:50:00,73.0,-99.9,-100.00,West,270,2.0,3.0,-999,-99.99,,,-99.99,,2013-09-05 05:50:00,